sensor_id;sensor_type;location;lat;lon;timestamp;P1;durP1;ratioP1;P2;durP2;ratioP2
23642;SDS011;11998;55.788;37.572;2023-04-28T08:12:56;12.48;;;7.53;;
23642;SDS011;11998;55.788;37.572;2023-04-28T08:13:57;9.52;;;8.07;;
23642;SDS011;11998;55.788;37.572;2023-04-28T08:15:01;9.93;;;7.10;;
23642;SDS011;11998;55.788;37.572;2023-04-28T08:16:03;8.10;;;7.30;;
23642;SDS011;11998;55.788;37.572;2023-04-28T08:17:03;8.85;;;7.18;;
23642;SDS011;11998;55.788;37.572;2023-04-28T08:18:04;8.73;;;7.38;;
23642;SDS011;11998;55.788;37.572;2023-04-28T08:19:04;10.30;;;7.50;;
23642;SDS011;11998;55.788;37.572;2023-04-28T08:20:05;10.73;;;7.57;;
23642;SDS011;11998;55.788;37.572;2023-04-28T08:21:06;9.15;;;7.13;;
23642;SDS011;11998;55.788;37.572;2023-04-28T08:22:07;10.30;;;7.75;;
23642;SDS011;11998;55.788;37.572;2023-04-28T08:23:08;15.32;;;7.80;;
23642;SDS011;11998;55.788;37.572;2023-04-28T08:24:09;9.35;;;7.65;;
23642;SDS011;11998;55.788;37.572;2023-04-28T08:25:10;8.45;;;7.28;;
23642;SDS011;11998;55.788;37.572;2023-04-28T08:26:10;12.30;;;8.35;;
23642;SDS011;11998;55.788;37.572;2023-04-28T08:27:11;8.77;;;7.95;;
23642;SDS011;11998;55.788;37.572;2023-04-28T08:28:12;11.10;;;8.25;;
23642;SDS011;11998;55.788;37.572;2023-04-28T08:29:13;14.30;;;8.07;;
23642;SDS011;11998;55.788;37.572;2023-04-28T08:30:13;12.43;;;7.80;;
23642;SDS011;11998;55.788;37.572;2023-04-28T08:31:14;9.43;;;8.40;;
23642;SDS011;11998;55.788;37.572;2023-04-28T08:32:14;15.57;;;8.30;;
23642;SDS011;11998;55.788;37.572;2023-04-28T08:33:15;11.38;;;8.27;;
23642;SDS011;11998;55.788;37.572;2023-04-28T08:34:15;12.00;;;9.05;;
23642;SDS011;11998;55.788;37.572;2023-04-28T08:35:16;11.13;;;8.23;;
23642;SDS011;11998;55.788;37.572;2023-04-28T08:36:19;10.60;;;9.02;;
23642;SDS011;11998;55.788;37.572;2023-04-28T08:37:20;13.15;;;9.27;;
23642;SDS011;11998;55.788;37.572;2023-04-28T08:38:20;13.10;;;8.82;;
23642;SDS011;11998;55.788;37.572;2023-04-28T08:39:23;12.40;;;8.90;;
23642;SDS011;11998;55.788;37.572;2023-04-28T08:40:25;11.80;;;9.75;;
23642;SDS011;11998;55.788;37.572;2023-04-28T08:41:31;12.90;;;10.00;;
23642;SDS011;11998;55.788;37.572;2023-04-28T08:42:32;11.95;;;10.38;;
23642;SDS011;11998;55.788;37.572;2023-04-28T08:43:36;11.90;;;10.55;;
23642;SDS011;11998;55.788;37.572;2023-04-28T08:44:39;12.82;;;10.77;;
23642;SDS011;11998;55.788;37.572;2023-04-28T08:45:40;13.15;;;11.25;;
23642;SDS011;11998;55.788;37.572;2023-04-28T08:46:42;14.13;;;11.85;;
23642;SDS011;11998;55.788;37.572;2023-04-28T08:47:43;14.68;;;12.65;;
23642;SDS011;11998;55.788;37.572;2023-04-28T08:48:48;14.43;;;11.60;;
23642;SDS011;11998;55.788;37.572;2023-04-28T08:49:50;13.60;;;12.27;;
23642;SDS011;11998;55.788;37.572;2023-04-28T08:50:53;14.63;;;12.70;;
23642;SDS011;11998;55.788;37.572;2023-04-28T08:51:58;15.18;;;13.57;;
23642;SDS011;11998;55.788;37.572;2023-04-28T08:52:59;16.02;;;13.45;;
23642;SDS011;11998;55.788;37.572;2023-04-28T08:54:03;15.93;;;13.05;;
23642;SDS011;11998;55.788;37.572;2023-04-28T08:55:07;15.85;;;14.23;;
23642;SDS011;11998;55.788;37.572;2023-04-28T08:56:09;20.83;;;13.93;;
23642;SDS011;11998;55.788;37.572;2023-04-28T08:57:14;16.15;;;14.43;;
23642;SDS011;11998;55.788;37.572;2023-04-28T08:58:15;23.67;;;15.40;;
23642;SDS011;11998;55.788;37.572;2023-04-28T08:59:15;16.55;;;14.63;;
23642;SDS011;11998;55.788;37.572;2023-04-28T09:00:17;17.05;;;14.82;;
23642;SDS011;11998;55.788;37.572;2023-04-28T09:01:18;16.50;;;14.88;;
23642;SDS011;11998;55.788;37.572;2023-04-28T09:02:18;22.65;;;15.35;;
23642;SDS011;11998;55.788;37.572;2023-04-28T09:03:19;20.52;;;13.85;;
23642;SDS011;11998;55.788;37.572;2023-04-28T09:04:20;16.75;;;14.43;;
23642;SDS011;11998;55.788;37.572;2023-04-28T09:05:20;16.77;;;15.00;;
23642;SDS011;11998;55.788;37.572;2023-04-28T09:06:21;16.83;;;15.02;;
23642;SDS011;11998;55.788;37.572;2023-04-28T09:07:22;16.23;;;14.48;;
23642;SDS011;11998;55.788;37.572;2023-04-28T09:08:23;16.50;;;13.80;;
23642;SDS011;11998;55.788;37.572;2023-04-28T09:09:27;15.57;;;13.48;;
23642;SDS011;11998;55.788;37.572;2023-04-28T09:10:31;15.02;;;13.40;;
23642;SDS011;11998;55.788;37.572;2023-04-28T09:11:32;15.45;;;13.93;;
23642;SDS011;11998;55.788;37.572;2023-04-28T09:12:35;17.42;;;13.73;;
23642;SDS011;11998;55.788;37.572;2023-04-28T09:13:37;16.05;;;14.40;;
23642;SDS011;11998;55.788;37.572;2023-04-28T09:14:39;17.40;;;14.00;;
23642;SDS011;11998;55.788;37.572;2023-04-28T09:15:39;15.75;;;13.93;;
23642;SDS011;11998;55.788;37.572;2023-04-28T09:16:40;15.20;;;13.63;;
23642;SDS011;11998;55.788;37.572;2023-04-28T09:17:47;14.73;;;12.65;;
23642;SDS011;11998;55.788;37.572;2023-04-28T09:18:55;15.10;;;12.68;;
23642;SDS011;11998;55.788;37.572;2023-04-28T09:19:56;18.67;;;13.20;;
23642;SDS011;11998;55.788;37.572;2023-04-28T09:22:10;18.00;;;13.27;;
23642;SDS011;11998;55.788;37.572;2023-04-28T09:24:28;15.07;;;13.55;;
23642;SDS011;11998;55.788;37.572;2023-04-28T09:25:29;14.43;;;13.13;;
23642;SDS011;11998;55.788;37.572;2023-04-28T09:26:45;14.73;;;13.07;;
23642;SDS011;11998;55.788;37.572;2023-04-28T09:27:49;15.32;;;13.70;;
23642;SDS011;11998;55.788;37.572;2023-04-28T09:28:50;14.45;;;12.95;;
23642;SDS011;11998;55.788;37.572;2023-04-28T09:29:52;15.82;;;14.13;;
23642;SDS011;11998;55.788;37.572;2023-04-28T09:30:53;15.13;;;12.63;;
23642;SDS011;11998;55.788;37.572;2023-04-28T09:31:59;14.82;;;13.05;;
23642;SDS011;11998;55.788;37.572;2023-04-28T09:33:12;14.63;;;12.52;;
23642;SDS011;11998;55.788;37.572;2023-04-28T09:34:13;14.02;;;12.63;;
23642;SDS011;11998;55.788;37.572;2023-04-28T09:35:14;14.68;;;12.95;;
23642;SDS011;11998;55.788;37.572;2023-04-28T09:36:24;13.73;;;12.15;;
23642;SDS011;11998;55.788;37.572;2023-04-28T09:37:26;14.80;;;13.30;;
23642;SDS011;11998;55.788;37.572;2023-04-28T09:38:29;16.83;;;12.85;;
23642;SDS011;11998;55.788;37.572;2023-04-28T09:39:30;15.20;;;12.27;;
23642;SDS011;11998;55.788;37.572;2023-04-28T09:40:30;14.63;;;13.18;;
23642;SDS011;11998;55.788;37.572;2023-04-28T09:41:43;16.85;;;13.00;;
23642;SDS011;11998;55.788;37.572;2023-04-28T09:42:44;15.57;;;12.77;;
23642;SDS011;11998;55.788;37.572;2023-04-28T09:43:45;14.05;;;12.57;;
23642;SDS011;11998;55.788;37.572;2023-04-28T09:44:52;16.45;;;13.85;;
23642;SDS011;11998;55.788;37.572;2023-04-28T09:45:53;17.33;;;13.18;;
23642;SDS011;11998;55.788;37.572;2023-04-28T09:46:55;14.57;;;13.07;;
23642;SDS011;11998;55.788;37.572;2023-04-28T09:48:07;16.85;;;13.40;;
23642;SDS011;11998;55.788;37.572;2023-04-28T09:49:12;19.08;;;15.00;;
23642;SDS011;11998;55.788;37.572;2023-04-28T09:50:14;17.38;;;13.18;;
23642;SDS011;11998;55.788;37.572;2023-04-28T09:51:19;15.13;;;13.02;;
23642;SDS011;11998;55.788;37.572;2023-04-28T09:52:20;15.68;;;14.02;;
23642;SDS011;11998;55.788;37.572;2023-04-28T09:53:24;15.32;;;13.68;;
23642;SDS011;11998;55.788;37.572;2023-04-28T09:54:26;15.05;;;13.52;;
23642;SDS011;11998;55.788;37.572;2023-04-28T09:55:29;15.93;;;13.65;;
23642;SDS011;11998;55.788;37.572;2023-04-28T09:56:34;14.57;;;12.23;;
23642;SDS011;11998;55.788;37.572;2023-04-28T09:57:38;15.80;;;13.98;;
23642;SDS011;11998;55.788;37.572;2023-04-28T09:58:39;15.23;;;13.63;;
23642;SDS011;11998;55.788;37.572;2023-04-28T09:59:41;15.68;;;14.18;;
23642;SDS011;11998;55.788;37.572;2023-04-28T10:00:50;14.95;;;12.85;;
23642;SDS011;11998;55.788;37.572;2023-04-28T10:01:53;19.02;;;13.90;;
23642;SDS011;11998;55.788;37.572;2023-04-28T10:02:57;15.32;;;13.82;;
23642;SDS011;11998;55.788;37.572;2023-04-28T10:03:59;16.52;;;14.35;;
23642;SDS011;11998;55.788;37.572;2023-04-28T10:05:01;16.45;;;14.70;;
23642;SDS011;11998;55.788;37.572;2023-04-28T10:06:02;14.20;;;12.90;;
23642;SDS011;11998;55.788;37.572;2023-04-28T10:07:03;17.73;;;14.00;;
23642;SDS011;11998;55.788;37.572;2023-04-28T10:08:03;15.45;;;13.55;;
23642;SDS011;11998;55.788;37.572;2023-04-28T10:09:04;17.33;;;13.10;;
23642;SDS011;11998;55.788;37.572;2023-04-28T10:10:06;15.98;;;14.02;;
23642;SDS011;11998;55.788;37.572;2023-04-28T10:11:07;15.73;;;14.13;;
23642;SDS011;11998;55.788;37.572;2023-04-28T10:12:09;16.23;;;14.70;;
23642;SDS011;11998;55.788;37.572;2023-04-28T10:13:11;15.98;;;14.23;;
23642;SDS011;11998;55.788;37.572;2023-04-28T10:14:12;16.08;;;14.55;;
23642;SDS011;11998;55.788;37.572;2023-04-28T10:15:13;16.90;;;13.75;;
23642;SDS011;11998;55.788;37.572;2023-04-28T10:16:13;16.20;;;14.55;;
23642;SDS011;11998;55.788;37.572;2023-04-28T10:17:15;16.92;;;14.23;;
23642;SDS011;11998;55.788;37.572;2023-04-28T10:18:16;14.48;;;13.15;;
23642;SDS011;11998;55.788;37.572;2023-04-28T10:19:17;15.35;;;13.82;;
23642;SDS011;11998;55.788;37.572;2023-04-28T10:20:19;15.55;;;13.95;;
23642;SDS011;11998;55.788;37.572;2023-04-28T10:21:22;15.45;;;13.95;;
23642;SDS011;11998;55.788;37.572;2023-04-28T10:22:32;15.82;;;14.32;;
23642;SDS011;11998;55.788;37.572;2023-04-28T10:25:15;16.60;;;15.18;;
23642;SDS011;11998;55.788;37.572;2023-04-28T10:26:21;16.85;;;15.05;;
23642;SDS011;11998;55.788;37.572;2023-04-28T10:28:33;16.27;;;14.77;;
23642;SDS011;11998;55.788;37.572;2023-04-28T10:29:34;16.85;;;15.10;;
23642;SDS011;11998;55.788;37.572;2023-04-28T10:30:35;16.23;;;14.65;;
23642;SDS011;11998;55.788;37.572;2023-04-28T10:31:37;17.27;;;15.13;;
23642;SDS011;11998;55.788;37.572;2023-04-28T10:32:37;16.90;;;15.25;;
23642;SDS011;11998;55.788;37.572;2023-04-28T10:33:38;16.98;;;15.43;;
23642;SDS011;11998;55.788;37.572;2023-04-28T10:34:40;18.17;;;16.38;;
23642;SDS011;11998;55.788;37.572;2023-04-28T10:35:44;14.55;;;13.23;;
23642;SDS011;11998;55.788;37.572;2023-04-28T10:36:49;13.50;;;12.18;;
23642;SDS011;11998;55.788;37.572;2023-04-28T10:39:13;16.27;;;13.32;;
23642;SDS011;11998;55.788;37.572;2023-04-28T10:40:33;15.25;;;13.75;;
23642;SDS011;11998;55.788;37.572;2023-04-28T10:41:37;14.05;;;12.65;;
23642;SDS011;11998;55.788;37.572;2023-04-28T10:42:51;12.90;;;11.60;;
23642;SDS011;11998;55.788;37.572;2023-04-28T10:43:58;14.35;;;13.05;;
23642;SDS011;11998;55.788;37.572;2023-04-28T10:44:58;14.15;;;12.60;;
23642;SDS011;11998;55.788;37.572;2023-04-28T10:46:02;14.45;;;13.13;;
23642;SDS011;11998;55.788;37.572;2023-04-28T10:47:05;14.05;;;12.60;;
23642;SDS011;11998;55.788;37.572;2023-04-28T10:48:08;13.82;;;12.43;;
23642;SDS011;11998;55.788;37.572;2023-04-28T10:49:09;17.02;;;13.68;;
23642;SDS011;11998;55.788;37.572;2023-04-28T10:50:09;16.33;;;14.77;;
23642;SDS011;11998;55.788;37.572;2023-04-28T10:56:27;20.13;;;18.13;;
23642;SDS011;11998;55.788;37.572;2023-04-28T10:57:28;20.02;;;17.92;;
23642;SDS011;11998;55.788;37.572;2023-04-28T10:58:29;20.42;;;18.33;;
23642;SDS011;11998;55.788;37.572;2023-04-28T10:59:31;20.90;;;18.87;;
23642;SDS011;11998;55.788;37.572;2023-04-28T11:00:32;20.08;;;17.98;;
23642;SDS011;11998;55.788;37.572;2023-04-28T11:01:32;22.27;;;19.92;;
23642;SDS011;11998;55.788;37.572;2023-04-28T11:02:34;18.17;;;16.45;;
23642;SDS011;11998;55.788;37.572;2023-04-28T11:07:27;19.70;;;16.90;;
23642;SDS011;11998;55.788;37.572;2023-04-28T11:08:31;19.60;;;17.33;;
23642;SDS011;11998;55.788;37.572;2023-04-28T11:12:10;20.02;;;17.92;;
23642;SDS011;11998;55.788;37.572;2023-04-28T11:13:26;19.65;;;17.63;;
23642;SDS011;11998;55.788;37.572;2023-04-28T11:14:34;18.00;;;16.10;;
23642;SDS011;11998;55.788;37.572;2023-04-28T11:15:36;19.55;;;17.58;;
23642;SDS011;11998;55.788;37.572;2023-04-28T11:16:47;20.50;;;17.48;;
23642;SDS011;11998;55.788;37.572;2023-04-28T11:17:52;20.30;;;17.00;;
23642;SDS011;11998;55.788;37.572;2023-04-28T11:18:59;19.92;;;17.85;;
23642;SDS011;11998;55.788;37.572;2023-04-28T11:20:03;19.73;;;17.73;;
23642;SDS011;11998;55.788;37.572;2023-04-28T11:21:08;18.77;;;16.83;;
23642;SDS011;11998;55.788;37.572;2023-04-28T11:22:15;19.77;;;17.30;;
23642;SDS011;11998;55.788;37.572;2023-04-28T11:23:17;19.48;;;17.17;;
23642;SDS011;11998;55.788;37.572;2023-04-28T11:24:18;19.10;;;17.17;;
23642;SDS011;11998;55.788;37.572;2023-04-28T11:25:19;19.63;;;17.75;;
23642;SDS011;11998;55.788;37.572;2023-04-28T11:26:20;19.52;;;17.63;;
23642;SDS011;11998;55.788;37.572;2023-04-28T11:27:26;17.92;;;16.17;;
23642;SDS011;11998;55.788;37.572;2023-04-28T11:28:27;20.35;;;18.25;;
23642;SDS011;11998;55.788;37.572;2023-04-28T11:29:36;19.95;;;17.98;;
23642;SDS011;11998;55.788;37.572;2023-04-28T11:30:37;19.42;;;17.50;;
23642;SDS011;11998;55.788;37.572;2023-04-28T11:31:38;19.98;;;18.08;;
23642;SDS011;11998;55.788;37.572;2023-04-28T11:32:40;20.60;;;18.42;;
23642;SDS011;11998;55.788;37.572;2023-04-28T11:33:41;19.27;;;17.37;;
23642;SDS011;11998;55.788;37.572;2023-04-28T11:34:50;20.35;;;18.35;;
23642;SDS011;11998;55.788;37.572;2023-04-28T11:35:50;17.75;;;15.90;;
23642;SDS011;11998;55.788;37.572;2023-04-28T11:36:51;19.60;;;17.55;;
23642;SDS011;11998;55.788;37.572;2023-04-28T11:38:01;21.60;;;17.42;;
23642;SDS011;11998;55.788;37.572;2023-04-28T11:39:06;19.20;;;17.15;;
23642;SDS011;11998;55.788;37.572;2023-04-28T11:40:11;19.30;;;17.38;;
23642;SDS011;11998;55.788;37.572;2023-04-28T11:41:12;19.58;;;17.63;;
23642;SDS011;11998;55.788;37.572;2023-04-28T11:42:13;23.30;;;20.92;;
23642;SDS011;11998;55.788;37.572;2023-04-28T11:43:14;21.98;;;19.67;;
23642;SDS011;11998;55.788;37.572;2023-04-28T11:44:15;19.05;;;17.25;;
23642;SDS011;11998;55.788;37.572;2023-04-28T11:45:17;19.48;;;17.50;;
23642;SDS011;11998;55.788;37.572;2023-04-28T11:46:24;19.15;;;17.20;;
23642;SDS011;11998;55.788;37.572;2023-04-28T11:47:29;19.10;;;17.38;;
23642;SDS011;11998;55.788;37.572;2023-04-28T11:48:31;20.25;;;17.98;;
23642;SDS011;11998;55.788;37.572;2023-04-28T11:49:44;19.77;;;17.42;;
23642;SDS011;11998;55.788;37.572;2023-04-28T11:50:45;20.30;;;18.23;;
23642;SDS011;11998;55.788;37.572;2023-04-28T11:51:46;22.98;;;17.90;;
23642;SDS011;11998;55.788;37.572;2023-04-28T11:52:51;22.40;;;18.92;;
23642;SDS011;11998;55.788;37.572;2023-04-28T11:53:52;19.98;;;17.98;;
23642;SDS011;11998;55.788;37.572;2023-04-28T11:54:56;22.42;;;18.02;;
23642;SDS011;11998;55.788;37.572;2023-04-28T11:56:04;19.85;;;18.05;;
23642;SDS011;11998;55.788;37.572;2023-04-28T11:57:17;19.38;;;17.48;;
23642;SDS011;11998;55.788;37.572;2023-04-28T11:58:21;25.30;;;18.80;;
23642;SDS011;11998;55.788;37.572;2023-04-28T11:59:30;20.77;;;18.15;;
23642;SDS011;11998;55.788;37.572;2023-04-28T12:00:32;23.25;;;19.95;;
23642;SDS011;11998;55.788;37.572;2023-04-28T12:01:34;21.25;;;18.08;;
23642;SDS011;11998;55.788;37.572;2023-04-28T12:02:43;20.73;;;18.60;;
23642;SDS011;11998;55.788;37.572;2023-04-28T12:03:44;19.73;;;17.85;;
23642;SDS011;11998;55.788;37.572;2023-04-28T12:04:45;21.77;;;19.50;;
23642;SDS011;11998;55.788;37.572;2023-04-28T12:05:46;26.52;;;19.42;;
23642;SDS011;11998;55.788;37.572;2023-04-28T12:06:47;21.23;;;18.48;;
23642;SDS011;11998;55.788;37.572;2023-04-28T12:08:05;18.10;;;16.45;;
23642;SDS011;11998;55.788;37.572;2023-04-28T12:09:15;19.52;;;17.15;;
23642;SDS011;11998;55.788;37.572;2023-04-28T12:10:17;17.33;;;14.85;;
23642;SDS011;11998;55.788;37.572;2023-04-28T12:11:18;16.50;;;14.82;;
23642;SDS011;11998;55.788;37.572;2023-04-28T12:12:29;18.05;;;16.15;;
23642;SDS011;11998;55.788;37.572;2023-04-28T12:13:31;16.75;;;14.98;;
23642;SDS011;11998;55.788;37.572;2023-04-28T12:14:32;13.88;;;12.57;;
23642;SDS011;11998;55.788;37.572;2023-04-28T12:15:56;14.80;;;13.25;;
23642;SDS011;11998;55.788;37.572;2023-04-28T12:17:00;15.88;;;12.70;;
23642;SDS011;11998;55.788;37.572;2023-04-28T12:18:08;12.98;;;11.23;;
23642;SDS011;11998;55.788;37.572;2023-04-28T12:19:11;14.27;;;12.25;;
23642;SDS011;11998;55.788;37.572;2023-04-28T12:20:32;14.60;;;12.95;;
23642;SDS011;11998;55.788;37.572;2023-04-28T12:21:34;16.45;;;13.50;;
23642;SDS011;11998;55.788;37.572;2023-04-28T12:22:45;13.95;;;12.57;;
23642;SDS011;11998;55.788;37.572;2023-04-28T12:23:50;14.38;;;13.07;;
23642;SDS011;11998;55.788;37.572;2023-04-28T12:25:07;13.75;;;12.45;;
23642;SDS011;11998;55.788;37.572;2023-04-28T12:26:09;13.85;;;12.45;;
23642;SDS011;11998;55.788;37.572;2023-04-28T12:28:15;14.30;;;12.43;;
23642;SDS011;11998;55.788;37.572;2023-04-28T12:29:35;13.32;;;12.10;;
23642;SDS011;11998;55.788;37.572;2023-04-28T12:30:39;13.45;;;12.07;;
23642;SDS011;11998;55.788;37.572;2023-04-28T12:31:49;14.80;;;12.30;;
23642;SDS011;11998;55.788;37.572;2023-04-28T12:32:51;13.52;;;12.20;;
23642;SDS011;11998;55.788;37.572;2023-04-28T12:33:53;13.10;;;11.80;;
23642;SDS011;11998;55.788;37.572;2023-04-28T12:34:53;14.00;;;11.23;;
23642;SDS011;11998;55.788;37.572;2023-04-28T12:35:54;13.98;;;12.05;;
23642;SDS011;11998;55.788;37.572;2023-04-28T12:36:56;11.95;;;10.73;;
23642;SDS011;11998;55.788;37.572;2023-04-28T12:37:57;12.20;;;10.85;;
23642;SDS011;11998;55.788;37.572;2023-04-28T12:38:58;10.27;;;9.20;;
23642;SDS011;11998;55.788;37.572;2023-04-28T12:39:58;11.20;;;10.20;;
23642;SDS011;11998;55.788;37.572;2023-04-28T12:40:59;11.27;;;10.18;;
23642;SDS011;11998;55.788;37.572;2023-04-28T12:42:00;12.02;;;10.82;;
23642;SDS011;11998;55.788;37.572;2023-04-28T12:43:03;11.35;;;10.25;;
23642;SDS011;11998;55.788;37.572;2023-04-28T12:44:04;11.27;;;10.13;;
23642;SDS011;11998;55.788;37.572;2023-04-28T12:45:05;12.05;;;10.85;;
23642;SDS011;11998;55.788;37.572;2023-04-28T12:46:07;12.43;;;10.63;;
23642;SDS011;11998;55.788;37.572;2023-04-28T12:47:08;11.85;;;10.73;;
23642;SDS011;11998;55.788;37.572;2023-04-28T12:48:10;12.30;;;11.05;;
23642;SDS011;11998;55.788;37.572;2023-04-28T12:49:10;11.95;;;10.75;;
23642;SDS011;11998;55.788;37.572;2023-04-28T12:50:11;11.20;;;10.10;;
23642;SDS011;11998;55.788;37.572;2023-04-28T12:51:11;12.20;;;11.02;;
23642;SDS011;11998;55.788;37.572;2023-04-28T12:52:12;11.73;;;10.20;;
23642;SDS011;11998;55.788;37.572;2023-04-28T12:53:13;13.50;;;9.82;;
23642;SDS011;11998;55.788;37.572;2023-04-28T12:54:13;10.73;;;9.77;;
23642;SDS011;11998;55.788;37.572;2023-04-28T12:55:14;10.68;;;9.77;;
23642;SDS011;11998;55.788;37.572;2023-04-28T12:56:15;9.70;;;8.80;;
23642;SDS011;11998;55.788;37.572;2023-04-28T12:57:16;12.40;;;9.85;;
23642;SDS011;11998;55.788;37.572;2023-04-28T12:58:17;10.82;;;9.45;;
23642;SDS011;11998;55.788;37.572;2023-04-28T12:59:18;9.80;;;8.93;;
23642;SDS011;11998;55.788;37.572;2023-04-28T13:00:18;10.43;;;8.55;;
23642;SDS011;11998;55.788;37.572;2023-04-28T13:01:22;9.10;;;8.20;;
23642;SDS011;11998;55.788;37.572;2023-04-28T13:02:24;8.43;;;7.60;;
23642;SDS011;11998;55.788;37.572;2023-04-28T13:03:24;7.78;;;7.00;;
23642;SDS011;11998;55.788;37.572;2023-04-28T13:04:26;8.05;;;7.25;;
23642;SDS011;11998;55.788;37.572;2023-04-28T13:05:27;7.20;;;6.43;;
23642;SDS011;11998;55.788;37.572;2023-04-28T13:06:28;7.63;;;6.13;;
23642;SDS011;11998;55.788;37.572;2023-04-28T13:07:28;7.25;;;5.32;;
23642;SDS011;11998;55.788;37.572;2023-04-28T13:08:29;5.53;;;5.13;;
23642;SDS011;11998;55.788;37.572;2023-04-28T13:09:33;5.80;;;5.30;;
23642;SDS011;11998;55.788;37.572;2023-04-28T13:10:34;6.20;;;5.60;;
23642;SDS011;11998;55.788;37.572;2023-04-28T13:11:34;6.67;;;5.50;;
23642;SDS011;11998;55.788;37.572;2023-04-28T13:12:35;6.03;;;5.35;;
23642;SDS011;11998;55.788;37.572;2023-04-28T13:13:35;4.80;;;4.40;;
23642;SDS011;11998;55.788;37.572;2023-04-28T13:14:36;5.70;;;4.90;;
23642;SDS011;11998;55.788;37.572;2023-04-28T13:15:37;5.07;;;4.47;;
23642;SDS011;11998;55.788;37.572;2023-04-28T13:16:38;5.83;;;5.00;;
23642;SDS011;11998;55.788;37.572;2023-04-28T13:17:39;5.20;;;4.80;;
23642;SDS011;11998;55.788;37.572;2023-04-28T13:18:39;5.50;;;4.97;;
23642;SDS011;11998;55.788;37.572;2023-04-28T13:19:40;5.22;;;4.78;;
23642;SDS011;11998;55.788;37.572;2023-04-28T13:20:41;7.05;;;5.05;;
23642;SDS011;11998;55.788;37.572;2023-04-28T13:21:41;6.20;;;5.05;;
23642;SDS011;11998;55.788;37.572;2023-04-28T13:22:42;5.93;;;4.90;;
23642;SDS011;11998;55.788;37.572;2023-04-28T13:23:44;5.40;;;4.90;;
23642;SDS011;11998;55.788;37.572;2023-04-28T13:24:44;5.80;;;5.20;;
23642;SDS011;11998;55.788;37.572;2023-04-28T13:25:45;5.50;;;4.90;;
23642;SDS011;11998;55.788;37.572;2023-04-28T13:26:46;5.13;;;4.73;;
23642;SDS011;11998;55.788;37.572;2023-04-28T13:27:46;5.10;;;4.37;;
23642;SDS011;11998;55.788;37.572;2023-04-28T13:28:47;5.50;;;5.00;;
23642;SDS011;11998;55.788;37.572;2023-04-28T13:29:47;5.33;;;4.93;;
23642;SDS011;11998;55.788;37.572;2023-04-28T13:30:48;5.88;;;4.75;;
23642;SDS011;11998;55.788;37.572;2023-04-28T13:31:49;7.40;;;5.10;;
23642;SDS011;11998;55.788;37.572;2023-04-28T13:32:50;6.13;;;4.80;;
23642;SDS011;11998;55.788;37.572;2023-04-28T13:33:51;5.80;;;5.20;;
23642;SDS011;11998;55.788;37.572;2023-04-28T13:34:52;7.50;;;5.37;;
23642;SDS011;11998;55.788;37.572;2023-04-28T13:35:52;6.27;;;5.30;;
23642;SDS011;11998;55.788;37.572;2023-04-28T13:36:53;5.90;;;5.40;;
23642;SDS011;11998;55.788;37.572;2023-04-28T13:37:54;6.50;;;5.40;;
23642;SDS011;11998;55.788;37.572;2023-04-28T13:39:00;7.07;;;5.60;;
23642;SDS011;11998;55.788;37.572;2023-04-28T13:40:01;12.97;;;5.50;;
23642;SDS011;11998;55.788;37.572;2023-04-28T13:41:03;6.43;;;5.83;;
23642;SDS011;11998;55.788;37.572;2023-04-28T13:42:04;6.97;;;5.53;;
23642;SDS011;11998;55.788;37.572;2023-04-28T13:43:05;6.90;;;5.68;;
23642;SDS011;11998;55.788;37.572;2023-04-28T13:44:06;7.43;;;5.67;;
23642;SDS011;11998;55.788;37.572;2023-04-28T13:45:07;8.27;;;5.80;;
23642;SDS011;11998;55.788;37.572;2023-04-28T13:46:08;7.20;;;5.33;;
23642;SDS011;11998;55.788;37.572;2023-04-28T13:47:09;6.97;;;6.00;;
23642;SDS011;11998;55.788;37.572;2023-04-28T13:48:10;6.50;;;5.33;;
23642;SDS011;11998;55.788;37.572;2023-04-28T13:49:11;9.20;;;5.27;;
23642;SDS011;11998;55.788;37.572;2023-04-28T13:50:12;5.50;;;5.00;;
23642;SDS011;11998;55.788;37.572;2023-04-28T13:51:13;5.80;;;5.00;;
23642;SDS011;11998;55.788;37.572;2023-04-28T13:52:14;6.43;;;5.00;;
23642;SDS011;11998;55.788;37.572;2023-04-28T13:53:14;6.87;;;5.70;;
23642;SDS011;11998;55.788;37.572;2023-04-28T13:54:15;6.90;;;5.27;;
23642;SDS011;11998;55.788;37.572;2023-04-28T13:55:16;7.60;;;5.67;;
23642;SDS011;11998;55.788;37.572;2023-04-28T13:56:16;8.80;;;5.47;;
23642;SDS011;11998;55.788;37.572;2023-04-28T13:57:17;6.53;;;5.20;;
23642;SDS011;11998;55.788;37.572;2023-04-28T13:58:17;11.43;;;5.40;;
23642;SDS011;11998;55.788;37.572;2023-04-28T13:59:19;7.07;;;5.17;;
23642;SDS011;11998;55.788;37.572;2023-04-28T14:00:19;6.50;;;5.20;;
23642;SDS011;11998;55.788;37.572;2023-04-28T14:01:21;8.07;;;5.33;;
23642;SDS011;11998;55.788;37.572;2023-04-28T14:02:21;5.63;;;4.80;;
23642;SDS011;11998;55.788;37.572;2023-04-28T14:03:22;5.57;;;4.97;;
23642;SDS011;11998;55.788;37.572;2023-04-28T14:04:23;7.13;;;5.50;;
23642;SDS011;11998;55.788;37.572;2023-04-28T14:05:24;6.17;;;5.43;;
23642;SDS011;11998;55.788;37.572;2023-04-28T14:06:25;5.33;;;4.83;;
23642;SDS011;11998;55.788;37.572;2023-04-28T14:07:26;7.23;;;4.93;;
23642;SDS011;11998;55.788;37.572;2023-04-28T14:08:27;8.50;;;5.97;;
23642;SDS011;11998;55.788;37.572;2023-04-28T14:09:28;8.60;;;6.10;;
23642;SDS011;11998;55.788;37.572;2023-04-28T14:10:28;6.90;;;5.23;;
23642;SDS011;11998;55.788;37.572;2023-04-28T14:11:30;8.07;;;5.77;;
23642;SDS011;11998;55.788;37.572;2023-04-28T14:12:30;7.07;;;5.60;;
23642;SDS011;11998;55.788;37.572;2023-04-28T14:13:31;7.87;;;5.43;;
23642;SDS011;11998;55.788;37.572;2023-04-28T14:14:32;9.90;;;5.73;;
23642;SDS011;11998;55.788;37.572;2023-04-28T14:15:33;6.47;;;4.80;;
23642;SDS011;11998;55.788;37.572;2023-04-28T14:16:33;7.10;;;5.17;;
23642;SDS011;11998;55.788;37.572;2023-04-28T14:17:34;6.47;;;4.27;;
23642;SDS011;11998;55.788;37.572;2023-04-28T14:18:35;5.53;;;4.20;;
23642;SDS011;11998;55.788;37.572;2023-04-28T14:19:36;5.93;;;4.63;;
23642;SDS011;11998;55.788;37.572;2023-04-28T14:20:37;4.93;;;4.13;;
23642;SDS011;11998;55.788;37.572;2023-04-28T14:21:37;5.43;;;4.13;;
23642;SDS011;11998;55.788;37.572;2023-04-28T14:22:38;4.80;;;3.70;;
23642;SDS011;11998;55.788;37.572;2023-04-28T14:23:38;7.20;;;4.20;;
23642;SDS011;11998;55.788;37.572;2023-04-28T14:24:40;4.53;;;3.37;;
23642;SDS011;11998;55.788;37.572;2023-04-28T14:25:41;5.13;;;3.53;;
23642;SDS011;11998;55.788;37.572;2023-04-28T14:26:42;3.90;;;3.10;;
23642;SDS011;11998;55.788;37.572;2023-04-28T14:27:44;4.33;;;3.40;;
23642;SDS011;11998;55.788;37.572;2023-04-28T14:28:46;4.83;;;2.60;;
23642;SDS011;11998;55.788;37.572;2023-04-28T14:29:47;3.03;;;2.50;;
23642;SDS011;11998;55.788;37.572;2023-04-28T14:30:47;4.63;;;2.93;;
23642;SDS011;11998;55.788;37.572;2023-04-28T14:31:49;3.67;;;2.77;;
23642;SDS011;11998;55.788;37.572;2023-04-28T14:32:49;3.60;;;2.53;;
23642;SDS011;11998;55.788;37.572;2023-04-28T14:33:50;5.83;;;2.87;;
23642;SDS011;11998;55.788;37.572;2023-04-28T14:34:51;3.33;;;2.30;;
23642;SDS011;11998;55.788;37.572;2023-04-28T14:35:51;4.60;;;2.73;;
23642;SDS011;11998;55.788;37.572;2023-04-28T14:36:52;5.17;;;2.73;;